Exline, Iowa
Current Conditions -  °F | °C
As of 4:50 PM on Thursday 27 Nov 2014 (Local Time) from KTVK Reporting Station
Overcast Overcast  
Wind Chill: 18°   Ceiling: 5000
Heat Index: 18°   Visibility: 10mi
Dew Point:   Wind: 3mph
Humidity: 68%   Direction: 10°N
Pressure: 30.45"   Gusts: NA
Location:  40.65°N, 92.84°W
Report Text: KTVK 272250Z AUTO 01003KT 10SM OVC050 M08/M13 A3045 RMK AO2
Loading
Personal Weather Stations






























Interactive Weather Map New forecast layout! Learn more

10-Day Weather Forecast

Advertisements
Track Severe Weather on mobile